Gilman, Minnesota
Current Conditions -  °F | °C
As of 2:53 PM on Sunday 21 Dec 2014 (Local Time) from KSTC Reporting Station
Haze Haze  
Wind Chill: 30°   Ceiling: 300
Heat Index: 36°   Visibility: 0.75mi
Dew Point: 34°   Wind: 8mph
Humidity: 93%   Direction: 150°SSE
Pressure: 29.7"   Gusts: NA
Location:  45.74°N, 93.95°W
Report Text: KSTC 212053Z 15007KT 3/4SM BR OVC003 02/01 A2970 RMK AO2 SLP076 T00220011 56019
Loading
Personal Weather Stations






























Interactive Weather Map New forecast layout! Learn more

10-Day Weather Forecast

Advertisements
Track Severe Weather on mobile